createdAt,value
2023-01-08T00:01:58.465Z,2.5
2023-01-08T00:04:03.877Z,3.1
2023-01-08T00:06:05.993Z,3
2023-01-08T00:08:08.010Z,2.6
2023-01-08T00:10:10.156Z,2.6
2023-01-08T00:12:12.228Z,3
2023-01-08T00:14:14.353Z,2
2023-01-08T00:16:16.611Z,3.2
2023-01-08T00:18:21.777Z,2.2
2023-01-08T00:20:23.942Z,2.6
2023-01-08T00:22:26.120Z,3
2023-01-08T00:24:28.253Z,2.7
2023-01-08T00:26:30.359Z,2.3
2023-01-08T00:32:39.870Z,2.7
2023-01-08T00:37:46.692Z,3.3
2023-01-08T00:39:48.850Z,4.5
2023-01-08T00:41:51.024Z,2.7
2023-01-08T00:43:53.136Z,2.1
2023-01-08T00:45:58.617Z,3.1
2023-01-08T00:48:00.688Z,3.1
2023-01-08T00:50:02.834Z,2.6
2023-01-08T00:52:07.520Z,2.5
2023-01-08T00:54:06.918Z,2.5
2023-01-08T00:56:09.116Z,3
2023-01-08T00:58:11.305Z,1.6
2023-01-08T01:00:16.696Z,2.9
2023-01-08T01:02:18.977Z,2.7
2023-01-08T01:04:21.068Z,2.1
2023-01-08T01:06:23.107Z,2.8
2023-01-08T01:08:26.814Z,3
2023-01-08T01:10:28.803Z,2.5
2023-01-08T01:12:30.948Z,3.1
2023-01-08T01:14:36.311Z,3.1
2023-01-08T01:16:38.438Z,3.1
2023-01-08T01:18:40.494Z,2.8
2023-01-08T01:20:42.654Z,2.1
2023-01-08T01:22:44.781Z,3.4
2023-01-08T01:24:46.930Z,3.7
2023-01-08T01:26:49.037Z,2.8
2023-01-08T01:28:54.469Z,3.2
2023-01-08T01:30:56.716Z,3.3
2023-01-08T01:32:58.761Z,2.6
2023-01-08T01:34:01.438Z,3
2023-01-08T01:36:03.581Z,2.8
2023-01-08T01:42:13.008Z,2.8
2023-01-08T01:46:17.293Z,2.8
2023-01-08T01:48:19.332Z,3.3
2023-01-08T01:50:21.360Z,2.3
2023-01-08T02:02:37.315Z,2.3
2023-01-08T02:04:39.463Z,3.1
2023-01-08T02:06:41.594Z,2.6
2023-01-08T02:08:43.715Z,2.7
2023-01-08T02:10:48.999Z,3.1
2023-01-08T02:12:51.118Z,2.6
2023-01-08T02:14:53.267Z,3.2
2023-01-08T02:18:57.519Z,1.8
2023-01-08T02:20:59.563Z,1.8
2023-01-08T02:25:07.007Z,1
2023-01-08T02:27:09.094Z,1
2023-01-08T02:31:40.082Z,1.4
2023-01-08T02:33:42.232Z,1.8
2023-01-08T02:35:44.390Z,1.3
2023-01-08T02:37:49.660Z,1.1
2023-01-08T02:39:51.770Z,0.9
2023-01-08T02:41:53.797Z,1.1
2023-01-08T02:43:55.930Z,0.9
2023-01-08T02:45:58.114Z,1.1
2023-01-08T02:48:00.234Z,0.8
2023-01-08T02:50:02.352Z,0.7
2023-01-08T02:52:07.624Z,1.2
2023-01-08T02:54:09.762Z,1.2
2023-01-08T02:56:11.895Z,0.9
2023-01-08T02:58:14.028Z,1.1
2023-01-08T03:02:18.401Z,1
2023-01-08T03:08:27.864Z,1
2023-01-08T03:10:29.958Z,1
2023-01-08T03:12:32.088Z,1.2
2023-01-08T03:14:34.226Z,1.1
2023-01-08T03:16:36.410Z,0.9
2023-01-08T03:18:38.453Z,1.5
2023-01-08T03:20:43.777Z,2.4
2023-01-08T03:22:45.901Z,1.6
2023-01-08T03:24:48.032Z,2.4
2023-01-08T03:25:50.711Z,1.7
2023-01-08T03:27:52.812Z,1.4
2023-01-08T03:29:54.941Z,1.8
2023-01-08T03:31:57.061Z,1.7
2023-01-08T03:34:02.304Z,2.6
2023-01-08T03:38:06.518Z,3
2023-01-08T03:40:08.635Z,3.3
2023-01-08T03:42:10.774Z,2.3
2023-01-08T03:44:12.892Z,2.3
2023-01-08T03:48:20.348Z,3.1
2023-01-08T03:54:26.689Z,2.5
2023-01-08T03:56:28.813Z,3
2023-01-08T03:58:30.936Z,3.2
2023-01-08T04:00:33.025Z,3.3
2023-01-08T04:02:38.461Z,3.2
2023-01-08T04:04:40.524Z,3.3
2023-01-08T04:06:42.604Z,2.6
2023-01-08T04:08:44.716Z,2
2023-01-08T04:10:46.840Z,2.5
2023-01-08T04:12:49.001Z,1.9
2023-01-08T04:14:51.145Z,2.3
2023-01-08T04:16:56.455Z,1.7
2023-01-08T04:18:58.590Z,1.9
2023-01-08T04:21:00.664Z,1.4
2023-01-08T04:22:03.263Z,2.4
2023-01-08T04:24:05.388Z,2.2
2023-01-08T04:26:07.499Z,1.6
2023-01-08T04:28:09.603Z,2
2023-01-08T04:30:14.942Z,1.4
2023-01-08T04:32:17.125Z,2.1
2023-01-08T04:34:19.179Z,1.6
2023-01-08T04:36:21.299Z,1
2023-01-08T04:38:23.409Z,0.9
2023-01-08T04:40:25.510Z,1.8
2023-01-08T04:42:27.641Z,1.2
2023-01-08T04:44:32.969Z,1.7
2023-01-08T04:48:37.195Z,1.5
2023-01-08T04:50:39.324Z,1.4
2023-01-08T04:52:41.427Z,1.3
2023-01-08T04:54:43.533Z,1.2
2023-01-08T04:56:45.621Z,1
2023-01-08T04:58:50.918Z,1.4
2023-01-08T05:00:52.958Z,1.4
2023-01-08T05:02:55.273Z,1.2
2023-01-08T05:04:57.149Z,0.8
2023-01-08T05:06:59.259Z,1.5
2023-01-08T05:15:10.911Z,0.5
2023-01-08T05:17:12.844Z,1.9
2023-01-08T05:18:15.521Z,2.2
2023-01-08T05:20:19.001Z,1.6
2023-01-08T05:22:19.747Z,1.6
2023-01-08T05:24:21.817Z,1.2
2023-01-08T05:26:27.154Z,1.4
2023-01-08T05:28:29.271Z,2
2023-01-08T05:30:31.386Z,1.7
2023-01-08T05:32:33.505Z,1
2023-01-08T05:34:35.585Z,1.1
2023-01-08T05:36:37.693Z,1.3
2023-01-08T05:38:39.806Z,1.7
2023-01-08T05:40:45.117Z,1.3
2023-01-08T05:42:47.238Z,2.2
2023-01-08T05:44:49.319Z,1.2
2023-01-08T05:46:51.438Z,1.7
2023-01-08T05:48:53.537Z,0.7
2023-01-08T05:50:55.609Z,1.5
2023-01-08T05:52:57.719Z,1.1
2023-01-08T05:55:03.045Z,1.3
2023-01-08T05:57:05.161Z,1.6
2023-01-08T05:59:07.266Z,1.2
2023-01-08T06:01:09.413Z,1
2023-01-08T06:05:13.527Z,1.3
2023-01-08T06:07:15.628Z,1.3
2023-01-08T06:09:20.980Z,1.7
2023-01-08T06:11:23.033Z,1.7
2023-01-08T06:13:25.171Z,1.9
2023-01-08T06:15:54.086Z,1.3
2023-01-08T06:19:58.237Z,1.2
2023-01-08T06:22:03.557Z,1.6
2023-01-08T06:26:07.759Z,1
2023-01-08T06:28:09.859Z,0.8
2023-01-08T06:30:11.982Z,0.9
2023-01-08T06:32:14.051Z,0.8
2023-01-08T06:36:21.536Z,2
2023-01-08T06:38:23.639Z,1.2
2023-01-08T06:40:25.716Z,1
2023-01-08T06:42:27.807Z,2.1
2023-01-08T06:44:29.900Z,1
2023-01-08T06:46:32.134Z,0.7
2023-01-08T06:48:34.119Z,1
2023-01-08T06:50:39.433Z,2.4
2023-01-08T06:58:47.835Z,1.9
2023-01-08T07:04:58.869Z,1.3
2023-01-08T07:07:00.939Z,1.5
2023-01-08T07:09:03.023Z,1.5
2023-01-08T07:10:05.692Z,1.3
2023-01-08T07:12:07.792Z,1.4
2023-01-08T07:14:09.848Z,1.7
2023-01-08T07:16:11.987Z,2.2
2023-01-08T07:18:17.263Z,1.3
2023-01-08T07:22:21.399Z,1.4
2023-01-08T07:24:23.490Z,1.5
2023-01-08T07:28:27.690Z,2.1
2023-01-08T07:30:33.607Z,1.7
2023-01-08T07:32:35.083Z,1.5
2023-01-08T07:34:37.159Z,1.6
2023-01-08T07:36:39.229Z,1.5
2023-01-08T07:38:41.296Z,1.2
2023-01-08T07:40:43.363Z,1.4
2023-01-08T07:42:45.449Z,1.5
2023-01-08T07:44:47.525Z,1.1
2023-01-08T07:46:52.895Z,1.9
2023-01-08T07:48:54.902Z,1.9
2023-01-08T07:50:56.982Z,1.2
2023-01-08T07:52:59.083Z,1.7
2023-01-08T07:55:01.136Z,1.6
2023-01-08T08:01:10.704Z,2
2023-01-08T08:06:17.371Z,1.5
2023-01-08T08:08:19.462Z,1.5
2023-01-08T08:10:21.504Z,1.1
2023-01-08T08:12:23.571Z,1.3
2023-01-08T08:14:28.898Z,1.3
2023-01-08T08:16:30.970Z,1.3
2023-01-08T08:18:33.027Z,1.1
2023-01-08T08:20:35.137Z,0.9
2023-01-08T08:22:37.168Z,2.3
2023-01-08T08:24:39.221Z,1.2
2023-01-08T08:26:41.263Z,1.2
2023-01-08T08:28:46.673Z,1.6
2023-01-08T08:30:48.659Z,1.3
2023-01-08T08:32:50.715Z,1.6
2023-01-08T08:34:52.785Z,1.9
2023-01-08T08:36:54.859Z,2.8
2023-01-08T08:38:56.917Z,1.5
2023-01-08T08:40:58.972Z,1.8
2023-01-08T08:45:06.348Z,1.2
2023-01-08T08:47:08.412Z,1.9
2023-01-08T08:49:10.496Z,1
2023-01-08T08:51:12.552Z,1.2
2023-01-08T08:53:14.639Z,0.8
2023-01-08T08:55:16.652Z,0.9
2023-01-08T08:57:21.938Z,1.6
2023-01-08T08:59:24.011Z,2.7
2023-01-08T09:01:26.246Z,1.6
2023-01-08T09:04:30.789Z,1.7
2023-01-08T09:06:32.829Z,1.6
2023-01-08T09:12:42.291Z,1.3
2023-01-08T09:18:48.498Z,1.8
2023-01-08T09:20:50.591Z,3.6
2023-01-08T09:24:57.977Z,1.5
2023-01-08T09:27:00.042Z,1.5
2023-01-08T09:29:02.150Z,1.7
2023-01-08T09:33:06.248Z,2.3
2023-01-08T09:35:08.319Z,1.4
2023-01-08T09:37:10.384Z,1.7
2023-01-08T09:39:15.706Z,1.5
2023-01-08T09:41:17.767Z,2
2023-01-08T09:43:19.826Z,1.4
2023-01-08T09:45:21.911Z,1.9
2023-01-08T09:51:28.123Z,2.6
2023-01-08T09:57:37.603Z,1.6
2023-01-08T10:00:06.428Z,2.4
2023-01-08T10:02:08.859Z,1.5
2023-01-08T10:04:10.565Z,1.4
2023-01-08T10:06:15.923Z,1.7
2023-01-08T10:08:18.006Z,2.3
2023-01-08T10:10:20.112Z,1.1
2023-01-08T10:12:22.188Z,1.8
2023-01-08T10:14:24.232Z,0.9
2023-01-08T10:16:26.426Z,1.2
2023-01-08T10:18:28.448Z,1.5
2023-01-08T10:20:33.770Z,1.8
2023-01-08T10:22:35.859Z,1.9
2023-01-08T10:24:37.953Z,2.9
2023-01-08T10:26:40.080Z,1.9
2023-01-08T10:28:42.195Z,1.9
2023-01-08T10:30:44.261Z,1.1
2023-01-08T10:32:46.362Z,3.1
2023-01-08T10:34:51.710Z,2.8
2023-01-08T10:36:53.829Z,1.8
2023-01-08T10:38:55.897Z,1.5
2023-01-08T10:40:58.051Z,1.6
2023-01-08T10:43:00.156Z,2.4
2023-01-08T10:45:02.283Z,1.8
2023-01-08T10:47:04.385Z,2.1
2023-01-08T10:49:09.722Z,1.6
2023-01-08T10:51:11.833Z,2.8
2023-01-08T10:53:13.914Z,2.1
2023-01-08T10:56:18.714Z,2
2023-01-08T11:02:28.234Z,3.3
2023-01-08T11:04:30.295Z,1.3
2023-01-08T11:06:32.426Z,2.2
2023-01-08T11:08:34.571Z,1.4
2023-01-08T11:12:38.796Z,2
2023-01-08T11:14:40.926Z,1.5
2023-01-08T11:16:46.254Z,2
2023-01-08T11:18:48.386Z,2.2
2023-01-08T11:20:50.502Z,1.3
2023-01-08T11:22:52.615Z,1.7
2023-01-08T11:24:54.762Z,1.8
2023-01-08T11:26:56.906Z,1.4
2023-01-08T11:28:59.004Z,1.7
2023-01-08T11:31:04.352Z,3
2023-01-08T11:33:06.522Z,1.7
2023-01-08T11:35:08.646Z,1.1
2023-01-08T11:37:10.747Z,1.2
2023-01-08T11:39:12.787Z,1.8
2023-01-08T11:41:14.917Z,1.9
2023-01-08T11:43:17.024Z,1.3
2023-01-08T11:45:22.219Z,0.9
2023-01-08T11:47:24.315Z,1.2
2023-01-08T11:49:26.341Z,1.3
2023-01-08T11:50:29.019Z,1.1
2023-01-08T11:52:31.162Z,1.5
2023-01-08T11:54:33.315Z,1.7
2023-01-08T11:56:35.463Z,1.8
2023-01-08T11:58:40.743Z,1.7
2023-01-08T12:00:42.874Z,1.6
2023-01-08T12:06:49.312Z,0.8
2023-01-08T12:15:00.998Z,1.2
2023-01-08T12:19:05.249Z,1.2
2023-01-08T12:23:09.399Z,1.3
2023-01-08T12:25:11.456Z,1.5
2023-01-08T12:27:16.713Z,1.2
2023-01-08T12:29:18.725Z,1
2023-01-08T12:31:20.865Z,1
2023-01-08T12:33:22.914Z,1.2
2023-01-08T12:39:29.236Z,1
2023-01-08T12:41:34.389Z,0.7
2023-01-08T12:43:36.407Z,1.6
2023-01-08T12:45:38.511Z,1
2023-01-08T12:46:41.157Z,0.8
2023-01-08T12:48:43.278Z,0.7
2023-01-08T12:50:45.234Z,0.8
2023-01-08T12:52:48.929Z,0.7
2023-01-08T12:54:54.059Z,1.2
2023-01-08T12:56:56.215Z,0.7
2023-01-08T12:58:58.264Z,0.8
2023-01-08T13:01:00.421Z,1.1
2023-01-08T13:03:02.421Z,0.6
2023-01-08T13:07:06.684Z,1.2
2023-01-08T13:11:13.956Z,0.6
2023-01-08T13:13:16.019Z,0.5
2023-01-08T13:15:18.036Z,0.7
2023-01-08T13:17:20.133Z,0.4
2023-01-08T13:19:22.191Z,0.6
2023-01-08T13:21:24.205Z,0.5
2023-01-08T13:23:29.337Z,0.9
2023-01-08T13:25:31.418Z,0.9
2023-01-08T13:27:33.446Z,0.6
2023-01-08T13:29:35.592Z,0.9
2023-01-08T13:31:37.729Z,0.8
2023-01-08T13:33:40.021Z,0.8
2023-01-08T13:35:42.001Z,0.8
2023-01-08T13:37:47.376Z,0.8
2023-01-08T13:39:49.524Z,0.8
2023-01-08T13:41:51.560Z,1
2023-01-08T13:44:20.361Z,0.7
2023-01-08T13:46:22.408Z,1
2023-01-08T13:48:24.449Z,0.8
2023-01-08T13:50:29.710Z,0.5
2023-01-08T13:52:31.846Z,0.7
2023-01-08T13:54:33.997Z,1
2023-01-08T13:56:36.142Z,1
2023-01-08T13:58:38.265Z,0.6
2023-01-08T14:00:40.384Z,1.1
2023-01-08T14:02:42.544Z,1.3
2023-01-08T14:04:47.673Z,0.7
2023-01-08T14:06:49.749Z,0.7
2023-01-08T14:08:51.873Z,1
2023-01-08T14:10:53.998Z,0.7
2023-01-08T14:14:59.123Z,0.8
2023-01-08T14:17:00.340Z,1.5
2023-01-08T14:19:05.732Z,0.9
2023-01-08T14:23:09.884Z,1.2
2023-01-08T14:25:12.417Z,1.2
2023-01-08T14:27:14.061Z,1
2023-01-08T14:31:18.333Z,1
2023-01-08T14:33:23.465Z,1.5
2023-01-08T14:37:27.658Z,1.3
2023-01-08T14:38:30.231Z,0.9
2023-01-08T14:42:34.496Z,1.3
2023-01-08T14:44:41.927Z,1.2
2023-01-08T14:46:42.011Z,2.2
2023-01-08T14:48:44.152Z,1.2
2023-01-08T14:52:48.294Z,0.8
2023-01-08T14:54:50.465Z,1.1
2023-01-08T14:56:52.549Z,1.5
2023-01-08T14:58:54.686Z,1
2023-01-08T15:01:00.237Z,0.6
2023-01-08T15:03:02.278Z,1.4
2023-01-08T15:05:04.384Z,1.1
2023-01-08T15:07:06.418Z,0.8
2023-01-08T15:09:10.248Z,1.7
2023-01-08T15:11:10.632Z,1.2
2023-01-08T15:13:12.781Z,1.6
2023-01-08T15:15:18.166Z,1.5
2023-01-08T15:17:20.261Z,1.2
2023-01-08T15:19:22.382Z,1.5
2023-01-08T15:21:24.494Z,1.1
2023-01-08T15:25:28.749Z,1.4
2023-01-08T15:27:30.860Z,1.4
2023-01-08T15:29:36.211Z,1.4
2023-01-08T15:31:38.290Z,1.4
2023-01-08T15:33:40.140Z,1.1
2023-01-08T15:46:58.712Z,1.4
2023-01-08T15:53:05.028Z,1.2
2023-01-08T15:55:07.121Z,1.5
2023-01-08T15:57:12.466Z,1.7
2023-01-08T15:59:14.578Z,1.6
2023-01-08T16:01:16.870Z,1.4
2023-01-08T16:03:18.805Z,1.3
2023-01-08T16:07:22.980Z,1.6
2023-01-08T16:09:25.102Z,2.2
2023-01-08T16:13:32.552Z,1.2
2023-01-08T16:17:36.796Z,1.9
2023-01-08T16:19:38.913Z,1.4
2023-01-08T16:21:41.001Z,2.1
2023-01-08T16:23:43.095Z,2.3
2023-01-08T16:25:48.412Z,2
2023-01-08T16:27:50.538Z,5
2023-01-08T16:29:52.653Z,1.9
2023-01-08T16:30:55.329Z,1.9
2023-01-08T16:32:57.423Z,5.6
2023-01-08T16:34:59.513Z,2.2
2023-01-08T16:37:01.638Z,2.3
2023-01-08T16:39:06.984Z,2.8
2023-01-08T16:41:09.071Z,3.2
2023-01-08T16:43:11.176Z,2.5
2023-01-08T16:45:13.265Z,3.6
2023-01-08T16:47:15.455Z,3.5
2023-01-08T16:49:17.446Z,4.9
2023-01-08T16:51:19.563Z,4
2023-01-08T16:53:24.904Z,3.4
2023-01-08T16:55:27.004Z,3.7
2023-01-08T16:57:29.084Z,4.8
2023-01-08T16:59:31.167Z,5.6
2023-01-08T17:01:33.332Z,4.5
2023-01-08T17:03:35.395Z,4.1
2023-01-08T17:05:37.450Z,4
2023-01-08T17:07:42.796Z,2.8
2023-01-08T17:09:44.894Z,4
2023-01-08T17:11:46.983Z,2.9
2023-01-08T17:13:49.041Z,3.8
2023-01-08T17:17:53.225Z,2.9
2023-01-08T17:19:55.300Z,3.1
2023-01-08T17:26:04.785Z,3.1
2023-01-08T17:28:33.608Z,2.1
2023-01-08T17:30:35.714Z,2.2
2023-01-08T17:32:37.806Z,1.5
2023-01-08T17:34:43.147Z,2.1
2023-01-08T17:36:45.203Z,1.6
2023-01-08T17:38:47.302Z,1.8
2023-01-08T17:44:53.545Z,1.9
2023-01-08T17:46:55.642Z,1.9
2023-01-08T17:51:03.045Z,1.7
2023-01-08T17:53:05.124Z,1.7
2023-01-08T17:55:07.208Z,2.3
2023-01-08T18:01:13.670Z,2.2
2023-01-08T18:07:22.975Z,3.7
2023-01-08T18:09:25.088Z,3.4
2023-01-08T18:11:27.155Z,2.2
2023-01-08T18:13:29.233Z,3.4
2023-01-08T18:17:36.658Z,2.5
2023-01-08T18:22:43.525Z,2.7
2023-01-08T18:24:45.582Z,3.5
2023-01-08T18:26:47.678Z,2.8
2023-01-08T18:28:49.755Z,2.4
2023-01-08T18:30:55.110Z,3.3
2023-01-08T18:32:57.168Z,3.3
2023-01-08T18:39:03.433Z,2.9
2023-01-08T18:41:05.532Z,4.4
2023-01-08T18:43:07.612Z,3.2
2023-01-08T18:47:16.556Z,3.5
2023-01-08T18:53:22.833Z,2.4
2023-01-08T18:55:24.919Z,2.3
2023-01-08T18:57:27.011Z,2.9
2023-01-08T18:59:32.323Z,2
2023-01-08T19:01:34.536Z,3
2023-01-08T19:03:36.499Z,2.7
2023-01-08T19:05:38.572Z,3.6
2023-01-08T19:07:40.656Z,2.4
2023-01-08T19:09:42.740Z,2.4
2023-01-08T19:11:44.838Z,2.9
2023-01-08T19:13:50.138Z,1.8
2023-01-08T19:15:52.252Z,2.6
2023-01-08T19:17:54.323Z,2.2
2023-01-08T19:21:00.097Z,3.6
2023-01-08T19:23:01.124Z,2.3
2023-01-08T19:25:03.210Z,4.2
2023-01-08T19:27:08.539Z,6.9
2023-01-08T19:29:10.606Z,6.1
2023-01-08T19:31:12.737Z,4.7
2023-01-08T19:33:14.762Z,3
2023-01-08T19:35:16.855Z,2.9
2023-01-08T19:37:18.907Z,2.8
2023-01-08T19:39:20.975Z,2.7
2023-01-08T19:41:26.276Z,2.9
2023-01-08T19:43:28.359Z,3.2
2023-01-08T19:49:34.569Z,2.8
2023-01-08T19:57:46.096Z,2.3
2023-01-08T20:01:50.367Z,2.8
2023-01-08T20:03:52.318Z,3.1
2023-01-08T20:05:54.370Z,2.8
2023-01-08T20:07:56.465Z,1.9
2023-01-08T20:10:01.774Z,2.8
2023-01-08T20:12:03.844Z,2.5
2023-01-08T20:14:05.911Z,2.8
2023-01-08T20:15:08.569Z,2.7
2023-01-08T20:17:10.655Z,3.2
2023-01-08T20:19:12.698Z,2.2
2023-01-08T20:21:14.787Z,2.2
2023-01-08T20:23:20.103Z,2.6
2023-01-08T20:25:22.162Z,2.5
2023-01-08T20:27:24.246Z,2.1
2023-01-08T20:29:26.294Z,1.6
2023-01-08T20:31:28.383Z,2.3
2023-01-08T20:43:44.036Z,2
2023-01-08T20:45:46.189Z,2.8
2023-01-08T20:47:48.172Z,2.3
2023-01-08T20:49:50.236Z,2.6
2023-01-08T20:53:57.617Z,2.4
2023-01-08T20:55:59.693Z,2.1
2023-01-08T20:58:01.763Z,1.8
2023-01-08T21:00:03.859Z,1.7
2023-01-08T21:04:08.035Z,1.7
2023-01-08T21:06:13.272Z,2.5
2023-01-08T21:08:15.324Z,1.7
2023-01-08T21:10:17.418Z,1.6
2023-01-08T21:12:46.290Z,2.6
2023-01-08T21:14:48.352Z,1.8
2023-01-08T21:16:50.399Z,1.4
2023-01-08T21:18:55.733Z,1.5
2023-01-08T21:20:57.785Z,3
2023-01-08T21:25:01.918Z,2.3
2023-01-08T21:27:03.994Z,1.8
2023-01-08T21:29:06.156Z,2.1
2023-01-08T21:31:08.144Z,2.1
2023-01-08T21:33:13.419Z,1.5
2023-01-08T21:35:15.487Z,2.2
2023-01-08T21:37:17.570Z,1.7
2023-01-08T21:39:19.634Z,1.4
2023-01-08T21:41:21.718Z,1.6
2023-01-08T21:43:23.787Z,1.8
2023-01-08T21:45:25.859Z,1.4
2023-01-08T21:47:31.179Z,1.7
2023-01-08T21:49:33.263Z,1.8
2023-01-08T21:51:35.317Z,1.5
2023-01-08T21:53:37.419Z,1.6
2023-01-08T21:55:39.467Z,1.7
2023-01-08T21:57:41.574Z,1.7
2023-01-08T21:59:43.632Z,1.3
2023-01-08T22:01:49.023Z,1.6
2023-01-08T22:03:51.043Z,2.4
2023-01-08T22:05:53.070Z,3.4
2023-01-08T22:06:55.741Z,2.3
2023-01-08T22:08:57.827Z,1.7
2023-01-08T22:10:59.890Z,1.1
2023-01-08T22:13:01.995Z,1.3
2023-01-08T22:15:07.298Z,1.6
2023-01-08T22:17:09.380Z,1.1
2023-01-08T22:19:11.430Z,1.5
2023-01-08T22:21:13.532Z,2.2
2023-01-08T22:23:15.579Z,1.5
2023-01-08T22:25:17.704Z,1.6
2023-01-08T22:27:19.768Z,1.4
2023-01-08T22:29:25.091Z,1.8
2023-01-08T22:31:27.177Z,1.6
2023-01-08T22:33:29.259Z,1.4
2023-01-08T22:35:31.331Z,1.3
2023-01-08T22:37:33.407Z,1.6
2023-01-08T22:39:35.497Z,1.2
2023-01-08T22:41:37.603Z,1.4
2023-01-08T22:43:42.899Z,1.3
2023-01-08T22:45:45.024Z,1.2
2023-01-08T22:47:47.076Z,2.7
2023-01-08T22:49:49.158Z,1.1
2023-01-08T22:51:51.240Z,1.2
2023-01-08T22:53:53.341Z,1.2
2023-01-08T22:55:55.441Z,0.9
2023-01-08T22:58:00.760Z,1.9
2023-01-08T23:00:02.878Z,1.4
2023-01-08T23:02:04.936Z,1.3
2023-01-08T23:05:09.703Z,1.7
2023-01-08T23:07:11.800Z,1.6
2023-01-08T23:09:13.900Z,1.3
2023-01-08T23:11:19.257Z,1.5
2023-01-08T23:13:21.336Z,1.5
2023-01-08T23:15:23.401Z,1.4
2023-01-08T23:17:25.512Z,1.4
2023-01-08T23:19:27.612Z,1.3
2023-01-08T23:21:29.678Z,1
2023-01-08T23:23:31.815Z,1.3
2023-01-08T23:25:37.123Z,1.6
2023-01-08T23:27:39.201Z,1.2
2023-01-08T23:29:41.318Z,1.2
2023-01-08T23:31:43.472Z,1.7
2023-01-08T23:33:45.512Z,1.7
2023-01-08T23:35:47.632Z,1.5
2023-01-08T23:37:49.718Z,0.7
2023-01-08T23:39:55.025Z,1.2
2023-01-08T23:41:57.193Z,0.9
2023-01-08T23:43:59.230Z,1.4
2023-01-08T23:46:01.333Z,1.1
2023-01-08T23:48:03.454Z,1.3
2023-01-08T23:50:05.530Z,1
2023-01-08T23:52:07.612Z,0.8
2023-01-08T23:54:12.938Z,1.2
2023-01-08T23:56:15.066Z,0.7
2023-01-08T23:59:19.797Z,0.6
